»·PEaware :: N902SQ KFAT-KRAL

N902SQ :: KFAT-KRAL

FLIGHT INFORMATION

Flight Status: Arrived
Operator: Privately registered:
United States
More flights under this callsign
Pilot: Gabor H. (24209)
Aircraft: SOCATA TBM-900
(TBM9)
More flights by this aircraft type
Origin: KFAT Fresno Yosemite Intl
United States
Destination: KRAL Riverside Mun
United States
More flights between these airports :: More routes between these airports
Route: BULL3 NTELL FRAME V23 EHF ZIGGY7
File this flight plan on PilotEdge
Remarks:
Altitude:
(Current/Filed)
23,000ft
Speed:
(Current/Filed)
295kts
Departed: 08-Oct-23 04:18 PM
Arrived: 08-Oct-23 05:14 PM
Distance/Time
Traveled:
203nm/0:55
Distance/Time
To Go:
Arrived

Flight Plot

Page will automatically refresh every two minutes.

Flight plan parsing failed; only flown route is shown


Map Options




Map Legend


Flown Route
Filed Route
Departure Airport
Arrival Airport
Navaid (VOR, NDB)
Fix

Horizontal Profiles

Position Reports

Time Latitude Longitude Heading Altitude Ground
Speed
08-Oct-23 16:01 36.778954 -119.730576 215 336ft 0kts
08-Oct-23 16:02 36.778954 -119.730575 215 336ft 0kts
08-Oct-23 16:04 36.778954 -119.730575 215 336ft 0kts
08-Oct-23 16:05 36.778954 -119.730575 215 336ft 0kts
08-Oct-23 16:06 36.778954 -119.730576 215 336ft 0kts
08-Oct-23 16:07 36.778954 -119.730576 215 336ft 0kts
08-Oct-23 16:08 36.778954 -119.730576 215 336ft 0kts
08-Oct-23 16:09 36.778954 -119.730576 215 336ft 0kts
08-Oct-23 16:10 36.778954 -119.730576 215 336ft 0kts
08-Oct-23 16:11 36.778954 -119.730576 215 336ft 0kts
08-Oct-23 16:12 36.778686 -119.730417 120 336ft 9kts
08-Oct-23 16:13 36.778592 -119.727085 124 336ft 13kts
08-Oct-23 16:14 36.775016 -119.720789 124 336ft 28kts
08-Oct-23 16:15 36.771427 -119.714523 123 336ft 20kts
08-Oct-23 16:16 36.769748 -119.710950 52 336ft 0kts
08-Oct-23 16:17 36.770143 -119.710547 32 336ft 11kts
08-Oct-23 16:18 36.780568 -119.727715 306 605ft 129kts
08-Oct-23 16:19 36.802283 -119.766636 305 2906ft 131kts
08-Oct-23 16:20 36.811080 -119.805430 217 5225ft 137kts
08-Oct-23 16:21 36.775538 -119.791938 151 7644ft 146kts
08-Oct-23 16:22 36.740439 -119.766708 150 9986ft 147kts
08-Oct-23 16:23 36.706204 -119.741773 152 12556ft 144kts
08-Oct-23 16:24 36.670566 -119.715790 152 14795ft 157kts
08-Oct-23 16:25 36.632332 -119.687881 152 17050ft 165kts
08-Oct-23 16:26 36.590591 -119.662176 160 19327ft 173kts
08-Oct-23 16:27 36.545259 -119.638679 159 21641ft 182kts
08-Oct-23 16:28 36.494313 -119.612335 159 22925ft 238kts
08-Oct-23 16:28 36.437966 -119.583125 158 22880ft 282kts
08-Oct-23 16:29 36.363001 -119.544442 158 22867ft 299kts
08-Oct-23 16:30 36.285663 -119.504723 158 22865ft 303kts
08-Oct-23 16:32 36.194570 -119.458045 158 22865ft 304kts
08-Oct-23 16:33 36.116399 -119.418078 158 22868ft 304kts
08-Oct-23 16:33 36.051108 -119.384612 158 22871ft 304kts
08-Oct-23 16:34 35.973604 -119.344875 158 22874ft 305kts
08-Oct-23 16:35 35.896507 -119.305427 158 22869ft 305kts
08-Oct-23 16:37 35.804839 -119.258750 159 22863ft 306kts
08-Oct-23 16:37 35.739392 -119.225816 159 22863ft 306kts
08-Oct-23 16:38 35.660508 -119.185998 158 22862ft 306kts
08-Oct-23 16:39 35.581670 -119.146199 158 22859ft 306kts
08-Oct-23 16:40 35.502915 -119.106528 158 22855ft 307kts
08-Oct-23 16:41 35.432485 -119.047720 142 22854ft 309kts
08-Oct-23 16:42 35.364599 -118.982969 142 22853ft 309kts
08-Oct-23 16:43 35.296775 -118.918523 142 22853ft 309kts
08-Oct-23 16:44 35.228842 -118.854118 142 22854ft 309kts
08-Oct-23 16:45 35.160780 -118.789727 142 22899ft 308kts
08-Oct-23 16:46 35.093292 -118.726018 142 23023ft 307kts
08-Oct-23 16:47 35.035184 -118.649763 129 23091ft 309kts
08-Oct-23 16:48 34.979794 -118.568703 129 23093ft 311kts
08-Oct-23 16:49 34.924231 -118.487689 129 23084ft 312kts
08-Oct-23 16:50 34.868484 -118.406605 129 23080ft 313kts
08-Oct-23 16:51 34.812501 -118.325358 130 22873ft 319kts
08-Oct-23 16:52 34.753889 -118.240492 130 21733ft 333kts
08-Oct-23 16:53 34.694428 -118.154611 130 20554ft 332kts
08-Oct-23 16:54 34.635571 -118.069812 129 19389ft 327kts
08-Oct-23 16:55 34.590845 -117.974913 118 18240ft 322kts
08-Oct-23 16:56 34.547743 -117.880521 118 17108ft 317kts
08-Oct-23 16:57 34.505211 -117.787702 118 15993ft 313kts
08-Oct-23 16:58 34.463014 -117.695871 118 14898ft 310kts
08-Oct-23 16:59 34.421321 -117.605375 118 13775ft 305kts
08-Oct-23 17:00 34.380057 -117.516007 118 12468ft 304kts
08-Oct-23 17:01 34.339148 -117.427665 118 11157ft 298kts
08-Oct-23 17:02 34.298921 -117.345438 137 10805ft 279kts
08-Oct-23 17:03 34.222859 -117.319361 165 9493ft 290kts
08-Oct-23 17:04 34.146865 -117.296443 165 7998ft 268kts
08-Oct-23 17:05 34.089627 -117.325340 225 7880ft 233kts
08-Oct-23 17:06 34.044222 -117.380674 224 6076ft 230kts
08-Oct-23 17:07 33.995787 -117.419751 164 4564ft 208kts
08-Oct-23 17:08 33.979403 -117.361092 101 3126ft 187kts
08-Oct-23 17:09 33.954510 -117.333622 233 1981ft 116kts
08-Oct-23 17:10 33.946199 -117.367556 264 1893ft 103kts
08-Oct-23 17:11 33.945744 -117.400905 272 1478ft 99kts
08-Oct-23 17:12 33.950018 -117.431883 281 885ft 83kts
08-Oct-23 17:13 33.951318 -117.442073 253 818ft 0kts
08-Oct-23 17:14 33.951318 -117.442073 253 818ft 0kts
08-Oct-23 17:15 33.951129 -117.443599 109 818ft 5kts
08-Oct-23 17:16 33.950306 -117.442952 300 818ft 2kts
08-Oct-23 17:17 33.950327 -117.442979 318 818ft 0kts
08-Oct-23 17:18 33.950327 -117.442979 318 818ft 0kts
08-Oct-23 17:19 33.950327 -117.442979 318 818ft 0kts
08-Oct-23 17:20 33.950048 -117.442685 319 818ft 1kts
08-Oct-23 17:21 33.949911 -117.442601 348 818ft 0kts
08-Oct-23 17:22 33.949911 -117.442601 348 818ft 0kts
08-Oct-23 17:23 33.949911 -117.442601 348 818ft 0kts
08-Oct-23 17:24 33.949911 -117.442601 348 818ft 0kts
08-Oct-23 17:25 33.949911 -117.442601 348 818ft 0kts
08-Oct-23 17:26 33.949911 -117.442601 348 818ft 0kts
08-Oct-23 17:27 33.949911 -117.442601 348 818ft 0kts

Navigation Log

Ident Type
Flight plan parsing failed, navigation log unavailable